createdAt,value
2022-12-09T00:01:32.482Z,51.64
2022-12-09T00:04:01.418Z,51.53
2022-12-09T00:06:30.420Z,51.61
2022-12-09T00:08:58.552Z,51.51
2022-12-09T00:11:26.751Z,51.74
2022-12-09T00:13:55.847Z,51.89
2022-12-09T00:16:24.105Z,51.83
2022-12-09T00:18:53.605Z,51.71
2022-12-09T00:21:22.618Z,51.61
2022-12-09T00:23:50.844Z,51.40
2022-12-09T00:26:19.382Z,51.38
2022-12-09T00:28:47.609Z,51.45
2022-12-09T00:31:17.386Z,51.56
2022-12-09T00:33:45.492Z,51.54
2022-12-09T00:36:16.030Z,51.62
2022-12-09T00:38:44.052Z,51.67
2022-12-09T00:41:12.176Z,51.67
2022-12-09T00:43:40.385Z,51.47
2022-12-09T00:46:08.330Z,51.44
2022-12-09T00:48:38.643Z,51.45
2022-12-09T00:51:07.204Z,51.29
2022-12-09T00:53:36.707Z,51.45
2022-12-09T00:56:04.794Z,51.29
2022-12-09T00:58:32.797Z,51.30
2022-12-09T01:01:00.835Z,51.14
2022-12-09T01:03:28.976Z,51.21
2022-12-09T01:05:57.071Z,51.02
2022-12-09T01:08:25.200Z,51.04
2022-12-09T01:10:54.548Z,51.12
2022-12-09T01:13:22.494Z,51.16
2022-12-09T01:15:50.528Z,51.20
2022-12-09T01:18:18.485Z,51.37
2022-12-09T01:20:56.487Z,51.27
2022-12-09T01:23:24.442Z,51.43
2022-12-09T01:25:52.617Z,51.40
2022-12-09T01:28:21.907Z,51.36
2022-12-09T01:30:49.961Z,51.33
2022-12-09T01:33:18.113Z,51.50
2022-12-09T01:35:46.067Z,51.41
2022-12-09T01:38:14.078Z,51.59
2022-12-09T01:40:46.579Z,51.43
2022-12-09T01:43:18.707Z,51.40
2022-12-09T01:45:49.256Z,51.30
2022-12-09T01:48:18.213Z,51.31
2022-12-09T01:50:48.874Z,51.31
2022-12-09T01:53:16.964Z,51.51
2022-12-09T01:55:45.124Z,51.51
2022-12-09T01:58:13.070Z,51.39
2022-12-09T02:00:41.147Z,51.47
2022-12-09T02:03:10.666Z,51.54
2022-12-09T02:05:39.058Z,51.65
2022-12-09T02:08:08.500Z,51.67
2022-12-09T02:10:36.678Z,51.68
2022-12-09T02:13:08.404Z,51.82
2022-12-09T02:15:38.850Z,51.62
2022-12-09T02:18:12.027Z,51.67
2022-12-09T02:20:41.785Z,51.70
2022-12-09T02:23:12.834Z,51.83
2022-12-09T02:25:43.333Z,51.77
2022-12-09T02:28:29.097Z,51.84
2022-12-09T02:31:02.341Z,51.79
2022-12-09T02:33:40.026Z,51.76
2022-12-09T02:36:12.917Z,51.65
2022-12-09T02:38:41.509Z,51.77
2022-12-09T02:41:11.680Z,51.71
2022-12-09T02:43:45.081Z,51.60
2022-12-09T02:46:17.548Z,51.59
2022-12-09T02:48:48.683Z,51.53
2022-12-09T02:51:18.831Z,51.78
2022-12-09T02:53:47.873Z,51.66
2022-12-09T02:56:16.293Z,51.33
2022-12-09T02:58:44.525Z,51.56
2022-12-09T03:01:21.296Z,51.57
2022-12-09T03:03:49.419Z,51.85
2022-12-09T03:06:19.469Z,51.64
2022-12-09T03:08:48.325Z,51.60
2022-12-09T03:11:17.545Z,51.75
2022-12-09T03:13:50.096Z,51.69
2022-12-09T03:16:21.536Z,51.73
2022-12-09T03:18:53.461Z,51.65
2022-12-09T03:21:22.973Z,51.51
2022-12-09T03:23:51.127Z,51.74
2022-12-09T03:26:19.079Z,51.75
2022-12-09T03:28:49.222Z,51.68
2022-12-09T03:31:19.159Z,51.81
2022-12-09T03:33:47.934Z,51.77
2022-12-09T03:36:16.379Z,51.85
2022-12-09T03:38:45.683Z,51.67
2022-12-09T03:41:16.657Z,51.64
2022-12-09T03:43:45.677Z,51.69
2022-12-09T03:46:13.807Z,51.83
2022-12-09T03:48:41.787Z,51.88
2022-12-09T03:51:11.764Z,51.72
2022-12-09T03:53:43.677Z,51.72
2022-12-09T03:56:15.912Z,51.69
2022-12-09T03:58:44.090Z,51.76
2022-12-09T04:01:12.810Z,51.76
2022-12-09T04:03:40.986Z,51.58
2022-12-09T04:06:09.525Z,51.56
2022-12-09T04:08:37.976Z,51.47
2022-12-09T04:11:06.243Z,51.45
2022-12-09T04:13:35.637Z,51.52
2022-12-09T04:16:03.706Z,51.65
2022-12-09T04:18:32.096Z,51.54
2022-12-09T04:21:00.260Z,51.49
2022-12-09T04:23:28.482Z,51.63
2022-12-09T04:25:56.684Z,51.73
2022-12-09T04:28:24.832Z,51.71
2022-12-09T04:30:54.216Z,51.56
2022-12-09T04:33:22.232Z,51.70
2022-12-09T04:35:50.378Z,51.71
2022-12-09T04:38:18.493Z,51.61
2022-12-09T04:40:46.696Z,51.63
2022-12-09T04:43:14.640Z,51.42
2022-12-09T04:45:42.953Z,51.70
2022-12-09T04:48:12.798Z,51.71
2022-12-09T04:50:41.817Z,51.84
2022-12-09T04:53:09.800Z,51.81
2022-12-09T04:55:37.800Z,51.50
2022-12-09T04:58:05.815Z,51.43
2022-12-09T05:00:33.881Z,51.71
2022-12-09T05:03:02.396Z,51.72
2022-12-09T05:05:32.105Z,51.69
2022-12-09T05:08:00.448Z,51.68
2022-12-09T05:10:28.856Z,51.66
2022-12-09T05:12:57.263Z,51.66
2022-12-09T05:15:25.289Z,51.64
2022-12-09T05:17:54.054Z,51.54
2022-12-09T05:20:22.141Z,51.53
2022-12-09T05:22:52.691Z,51.56
2022-12-09T05:25:20.931Z,51.57
2022-12-09T05:27:48.868Z,51.61
2022-12-09T05:30:17.527Z,51.70
2022-12-09T05:32:45.683Z,51.60
2022-12-09T05:35:13.745Z,51.61
2022-12-09T05:37:41.800Z,51.65
2022-12-09T05:40:12.470Z,51.50
2022-12-09T05:42:42.147Z,51.62
2022-12-09T05:45:11.026Z,51.36
2022-12-09T05:47:39.535Z,51.50
2022-12-09T05:50:09.171Z,51.51
2022-12-09T05:52:37.783Z,51.50
2022-12-09T05:55:06.326Z,51.50
2022-12-09T05:57:36.072Z,51.70
2022-12-09T06:00:05.649Z,51.61
2022-12-09T06:02:34.955Z,51.76
2022-12-09T06:05:04.082Z,51.82
2022-12-09T06:07:32.623Z,51.48
2022-12-09T06:10:01.319Z,51.45
2022-12-09T06:12:29.888Z,51.46
2022-12-09T06:14:59.577Z,51.56
2022-12-09T06:17:27.782Z,51.48
2022-12-09T06:19:55.953Z,51.41
2022-12-09T06:22:24.741Z,51.41
2022-12-09T06:24:56.934Z,51.39
2022-12-09T06:27:25.267Z,51.68
2022-12-09T06:29:53.554Z,51.38
2022-12-09T06:32:23.236Z,51.54
2022-12-09T06:34:51.555Z,51.61
2022-12-09T06:37:19.605Z,51.59
2022-12-09T06:39:48.506Z,51.46
2022-12-09T06:42:16.741Z,51.49
2022-12-09T06:44:44.899Z,51.42
2022-12-09T06:47:13.261Z,51.28
2022-12-09T06:49:42.886Z,51.50
2022-12-09T06:52:11.138Z,51.43
2022-12-09T06:54:39.553Z,51.41
2022-12-09T06:57:07.894Z,51.36
2022-12-09T06:59:35.989Z,51.47
2022-12-09T07:02:04.513Z,51.41
2022-12-09T07:04:33.208Z,51.50
2022-12-09T07:07:03.205Z,51.53
2022-12-09T07:09:31.661Z,51.74
2022-12-09T07:11:59.950Z,51.64
2022-12-09T07:14:28.212Z,51.73
2022-12-09T07:16:56.594Z,51.71
2022-12-09T07:19:24.917Z,51.66
2022-12-09T07:21:53.796Z,51.53
2022-12-09T07:24:23.280Z,51.67
2022-12-09T07:26:51.474Z,51.71
2022-12-09T07:29:19.604Z,51.62
2022-12-09T07:31:48.603Z,51.70
2022-12-09T07:34:17.001Z,51.74
2022-12-09T07:36:45.473Z,51.72
2022-12-09T07:39:14.953Z,51.79
2022-12-09T07:41:44.842Z,51.84
2022-12-09T07:44:13.569Z,51.76
2022-12-09T07:46:41.991Z,51.92
2022-12-09T07:49:11.772Z,51.83
2022-12-09T07:51:40.167Z,51.94
2022-12-09T07:54:08.198Z,51.81
2022-12-09T07:56:36.121Z,52.09
2022-12-09T07:59:07.163Z,52.03
2022-12-09T08:01:35.217Z,52.18
2022-12-09T08:04:03.537Z,51.94
2022-12-09T08:06:32.243Z,51.97
2022-12-09T08:09:00.922Z,52.01
2022-12-09T08:11:30.210Z,52.05
2022-12-09T08:13:58.924Z,52.14
2022-12-09T08:16:29.187Z,51.99
2022-12-09T08:18:57.519Z,52.14
2022-12-09T08:21:27.807Z,52.02
2022-12-09T08:23:56.198Z,51.95
2022-12-09T08:26:24.994Z,52.13
2022-12-09T08:28:54.088Z,52.18
2022-12-09T08:31:23.892Z,52.26
2022-12-09T08:33:53.967Z,52.16
2022-12-09T08:36:23.132Z,52.19
2022-12-09T08:38:51.602Z,52.19
2022-12-09T08:41:21.458Z,52.12
2022-12-09T08:43:49.976Z,52.14
2022-12-09T08:46:18.117Z,52.14
2022-12-09T08:48:46.482Z,52.25
2022-12-09T08:51:16.485Z,52.17
2022-12-09T08:53:44.929Z,52.21
2022-12-09T08:56:16.927Z,52.26
2022-12-09T08:58:45.390Z,52.17
2022-12-09T09:01:16.437Z,51.99
2022-12-09T09:03:44.947Z,52.02
2022-12-09T09:06:13.335Z,52.18
2022-12-09T09:08:43.425Z,52.16
2022-12-09T09:11:11.822Z,52.25
2022-12-09T09:13:40.808Z,52.24
2022-12-09T09:16:10.588Z,52.30
2022-12-09T09:18:39.285Z,52.27
2022-12-09T09:21:08.297Z,52.26
2022-12-09T09:23:36.708Z,52.02
2022-12-09T09:26:06.370Z,52.05
2022-12-09T09:28:34.815Z,52.25
2022-12-09T09:31:03.371Z,52.17
2022-12-09T09:33:31.679Z,52.32
2022-12-09T09:36:02.774Z,52.26
2022-12-09T09:38:34.005Z,52.27
2022-12-09T09:41:02.151Z,52.21
2022-12-09T09:43:34.976Z,52.25
2022-12-09T09:46:03.587Z,52.19
2022-12-09T09:48:33.401Z,52.19
2022-12-09T09:51:04.411Z,52.19
2022-12-09T09:53:33.647Z,52.25
2022-12-09T09:56:02.754Z,52.18
2022-12-09T09:58:35.700Z,52.15
2022-12-09T10:01:05.321Z,52.13
2022-12-09T10:03:39.667Z,52.07
2022-12-09T10:06:10.813Z,52.08
2022-12-09T10:08:43.505Z,52.21
2022-12-09T10:11:16.799Z,52.00
2022-12-09T10:13:50.630Z,52.00
2022-12-09T10:16:20.070Z,52.00
2022-12-09T10:19:05.743Z,51.92
2022-12-09T10:21:36.785Z,51.90
2022-12-09T10:24:21.358Z,51.86
2022-12-09T10:27:09.700Z,51.89
2022-12-09T10:29:52.904Z,51.93
2022-12-09T10:32:22.296Z,52.75
2022-12-09T10:34:50.641Z,54.59
2022-12-09T10:37:37.524Z,57.13
2022-12-09T10:40:17.772Z,58.24
2022-12-09T10:43:04.893Z,58.31
2022-12-09T10:46:07.825Z,57.58
2022-12-09T10:48:27.710Z,57.49
2022-12-09T10:50:59.414Z,57.34
2022-12-09T10:53:28.015Z,56.83
2022-12-09T10:55:56.814Z,56.10
2022-12-09T10:58:26.263Z,55.51
2022-12-09T11:01:09.713Z,54.64
2022-12-09T11:03:39.874Z,54.15
2022-12-09T11:06:17.734Z,53.79
2022-12-09T11:08:51.582Z,53.20
2022-12-09T11:11:20.073Z,52.88
2022-12-09T11:13:48.794Z,52.51
2022-12-09T11:16:18.193Z,52.40
2022-12-09T11:18:48.305Z,52.15
2022-12-09T11:21:33.454Z,51.50
2022-12-09T11:24:03.663Z,51.53
2022-12-09T11:26:37.611Z,50.38
2022-12-09T11:29:07.523Z,47.98
2022-12-09T11:31:39.974Z,47.38
2022-12-09T11:34:17.145Z,46.51
2022-12-09T11:36:48.305Z,47.33
2022-12-09T11:39:23.167Z,47.65
2022-12-09T11:42:16.615Z,47.56
2022-12-09T11:44:52.008Z,45.62
2022-12-09T11:47:28.515Z,45.48
2022-12-09T11:50:05.570Z,44.16
2022-12-09T11:52:33.668Z,43.11
2022-12-09T11:55:11.118Z,41.68
2022-12-09T11:57:42.701Z,41.81
2022-12-09T12:00:18.221Z,41.52
2022-12-09T12:02:48.788Z,41.96
2022-12-09T12:05:23.392Z,41.89
2022-12-09T12:07:58.807Z,42.43
2022-12-09T12:10:28.347Z,42.91
2022-12-09T12:13:01.094Z,43.02
2022-12-09T12:15:33.478Z,44.24
2022-12-09T12:18:04.577Z,47.45
2022-12-09T12:20:38.682Z,49.27
2022-12-09T12:23:23.859Z,49.33
2022-12-09T12:25:54.850Z,49.16
2022-12-09T12:28:55.325Z,48.37
2022-12-09T12:31:38.355Z,47.63
2022-12-09T12:34:24.692Z,46.05
2022-12-09T12:36:57.364Z,45.26
2022-12-09T12:39:36.839Z,44.05
2022-12-09T12:42:11.505Z,43.39
2022-12-09T12:45:02.589Z,42.43
2022-12-09T12:47:34.404Z,42.18
2022-12-09T12:50:32.984Z,41.71
2022-12-09T12:53:04.043Z,41.82
2022-12-09T12:55:42.518Z,41.35
2022-12-09T12:58:12.761Z,41.17
2022-12-09T13:00:52.105Z,40.35
2022-12-09T13:03:23.140Z,39.94
2022-12-09T13:05:53.628Z,38.82
2022-12-09T13:08:24.542Z,38.46
2022-12-09T13:10:53.318Z,38.26
2022-12-09T13:13:23.254Z,38.49
2022-12-09T13:15:52.797Z,38.33
2022-12-09T13:18:22.719Z,38.30
2022-12-09T13:20:53.102Z,37.72
2022-12-09T13:23:27.580Z,37.27
2022-12-09T13:26:03.086Z,36.96
2022-12-09T13:28:35.891Z,36.44
2022-12-09T13:31:03.877Z,36.10
2022-12-09T13:33:44.350Z,35.78
2022-12-09T13:36:17.315Z,35.43
2022-12-09T13:38:45.287Z,35.69
2022-12-09T13:42:16.327Z,35.57
2022-12-09T13:44:46.423Z,36.05
2022-12-09T13:47:15.928Z,35.50
2022-12-09T13:49:43.955Z,34.86
2022-12-09T13:52:13.249Z,34.89
2022-12-09T13:54:48.051Z,34.36
2022-12-09T13:57:19.738Z,33.64
2022-12-09T13:59:48.796Z,33.37
2022-12-09T14:02:28.801Z,33.97
2022-12-09T14:05:00.988Z,34.50
2022-12-09T14:07:34.014Z,35.11
2022-12-09T14:10:02.093Z,35.36
2022-12-09T14:13:21.847Z,36.34
2022-12-09T14:15:50.291Z,36.71
2022-12-09T14:18:30.292Z,37.21
2022-12-09T14:21:26.213Z,37.99
2022-12-09T14:24:33.878Z,39.83
2022-12-09T14:27:15.915Z,41.03
2022-12-09T14:29:49.082Z,41.24
2022-12-09T14:32:27.486Z,40.87
2022-12-09T14:35:22.362Z,40.76
2022-12-09T14:38:08.409Z,40.34
2022-12-09T14:40:48.462Z,39.98
2022-12-09T14:43:27.525Z,39.51
2022-12-09T14:45:57.676Z,39.64
2022-12-09T14:48:28.044Z,39.19
2022-12-09T14:51:17.515Z,38.53
2022-12-09T14:53:47.832Z,37.84
2022-12-09T14:56:18.748Z,36.66
2022-12-09T14:58:50.252Z,36.28
2022-12-09T15:01:19.292Z,36.56
2022-12-09T15:03:53.412Z,36.96
2022-12-09T15:06:21.489Z,37.28
2022-12-09T15:08:51.027Z,37.93
2022-12-09T15:11:21.534Z,38.11
2022-12-09T15:13:51.395Z,38.46
2022-12-09T15:16:26.085Z,38.76
2022-12-09T15:18:54.225Z,39.07
2022-12-09T15:21:26.836Z,39.36
2022-12-09T15:23:54.765Z,39.40
2022-12-09T15:26:26.754Z,39.46
2022-12-09T15:28:56.166Z,39.60
2022-12-09T15:31:26.601Z,39.77
2022-12-09T15:33:55.383Z,40.05
2022-12-09T15:36:25.188Z,40.21
2022-12-09T15:38:54.904Z,40.48
2022-12-09T15:41:42.147Z,40.68
2022-12-09T15:44:12.570Z,40.92
2022-12-09T15:46:41.019Z,40.98
2022-12-09T15:49:08.990Z,41.01
2022-12-09T15:51:37.111Z,41.17
2022-12-09T15:54:06.426Z,41.45
2022-12-09T15:56:37.947Z,41.61
2022-12-09T15:59:07.393Z,41.59
2022-12-09T16:01:35.578Z,41.93
2022-12-09T16:04:04.280Z,42.23
2022-12-09T16:06:34.094Z,42.08
2022-12-09T16:09:02.100Z,42.33
2022-12-09T16:11:38.373Z,42.42
2022-12-09T16:14:06.384Z,42.79
2022-12-09T16:16:40.382Z,42.87
2022-12-09T16:19:33.454Z,43.07
2022-12-09T16:22:02.076Z,43.16
2022-12-09T16:24:50.736Z,43.45
2022-12-09T16:27:20.661Z,43.79
2022-12-09T16:29:50.963Z,44.31
2022-12-09T16:32:24.802Z,44.14
2022-12-09T16:34:53.787Z,44.34
2022-12-09T16:37:29.614Z,44.28
2022-12-09T16:39:57.923Z,44.52
2022-12-09T16:42:32.441Z,44.67
2022-12-09T16:45:23.832Z,44.46
2022-12-09T16:47:54.894Z,44.84
2022-12-09T16:50:23.111Z,44.87
2022-12-09T16:52:51.167Z,44.79
2022-12-09T16:55:20.759Z,44.90
2022-12-09T16:57:50.104Z,45.08
2022-12-09T17:00:18.591Z,45.04
2022-12-09T17:02:47.617Z,45.23
2022-12-09T17:05:15.586Z,45.26
2022-12-09T17:07:43.677Z,45.24
2022-12-09T17:10:14.029Z,45.53
2022-12-09T17:12:42.020Z,45.70
2022-12-09T17:15:15.060Z,45.66
2022-12-09T17:17:48.229Z,45.71
2022-12-09T17:20:17.107Z,45.79
2022-12-09T17:22:45.042Z,45.73
2022-12-09T17:25:12.963Z,45.91
2022-12-09T17:27:40.881Z,45.73
2022-12-09T17:30:11.739Z,45.98
2022-12-09T17:32:39.989Z,46.25
2022-12-09T17:35:12.589Z,46.44
2022-12-09T17:37:40.993Z,46.32
2022-12-09T17:40:10.180Z,46.57
2022-12-09T17:42:38.378Z,46.47
2022-12-09T17:45:07.346Z,46.60
2022-12-09T17:47:36.931Z,46.52
2022-12-09T17:50:05.209Z,46.65
2022-12-09T17:52:33.469Z,46.58
2022-12-09T17:55:01.466Z,46.67
2022-12-09T17:57:29.422Z,46.88
2022-12-09T17:59:57.437Z,46.91
2022-12-09T18:02:25.428Z,46.72
2022-12-09T18:04:54.718Z,46.88
2022-12-09T18:07:23.095Z,47.12
2022-12-09T18:09:54.526Z,47.06
2022-12-09T18:12:22.873Z,47.18
2022-12-09T18:14:50.856Z,47.48
2022-12-09T18:17:18.822Z,47.56
2022-12-09T18:19:46.870Z,47.60
2022-12-09T18:22:16.159Z,47.78
2022-12-09T18:24:44.072Z,48.13
2022-12-09T18:27:11.971Z,48.31
2022-12-09T18:29:41.589Z,48.03
2022-12-09T18:32:09.658Z,48.22
2022-12-09T18:34:37.693Z,47.94
2022-12-09T18:37:05.604Z,48.12
2022-12-09T18:39:34.904Z,48.14
2022-12-09T18:42:03.493Z,48.26
2022-12-09T18:44:31.515Z,48.28
2022-12-09T18:47:00.296Z,48.23
2022-12-09T18:49:28.622Z,48.25
2022-12-09T18:51:56.702Z,48.32
2022-12-09T18:54:27.595Z,48.54
2022-12-09T18:56:56.971Z,48.54
2022-12-09T18:59:25.553Z,48.39
2022-12-09T19:01:53.720Z,48.44
2022-12-09T19:04:22.539Z,48.41
2022-12-09T19:06:51.565Z,48.51
2022-12-09T19:09:20.495Z,48.53
2022-12-09T19:11:48.902Z,48.51
2022-12-09T19:14:18.934Z,48.69
2022-12-09T19:16:47.043Z,48.60
2022-12-09T19:19:15.928Z,48.46
2022-12-09T19:21:43.998Z,48.57
2022-12-09T19:24:14.511Z,48.72
2022-12-09T19:26:43.817Z,48.79
2022-12-09T19:29:12.157Z,48.73
2022-12-09T19:31:42.255Z,48.94
2022-12-09T19:34:12.806Z,48.88
2022-12-09T19:36:40.790Z,49.08
2022-12-09T19:39:09.521Z,49.25
2022-12-09T19:41:37.881Z,49.21
2022-12-09T19:44:05.971Z,49.49
2022-12-09T19:46:34.192Z,49.31
2022-12-09T19:49:03.748Z,49.84
2022-12-09T19:51:32.258Z,49.80
2022-12-09T19:54:01.361Z,49.93
2022-12-09T19:56:29.398Z,49.87
2022-12-09T19:58:57.274Z,49.94
2022-12-09T20:01:26.309Z,49.75
2022-12-09T20:03:58.175Z,49.72
2022-12-09T20:06:27.654Z,49.85
2022-12-09T20:08:55.545Z,50.21
2022-12-09T20:11:24.182Z,50.28
2022-12-09T20:13:52.256Z,50.39
2022-12-09T20:16:21.360Z,50.34
2022-12-09T20:18:49.434Z,50.36
2022-12-09T20:21:18.189Z,50.24
2022-12-09T20:23:47.589Z,50.12
2022-12-09T20:26:16.638Z,50.17
2022-12-09T20:28:45.386Z,50.33
2022-12-09T20:31:14.177Z,50.51
2022-12-09T20:33:42.376Z,50.53
2022-12-09T20:36:11.381Z,50.49
2022-12-09T20:38:39.333Z,50.43
2022-12-09T20:41:11.169Z,50.26
2022-12-09T20:43:40.535Z,50.32
2022-12-09T20:46:09.096Z,50.27
2022-12-09T20:48:37.621Z,50.18
2022-12-09T20:51:06.443Z,50.13
2022-12-09T20:53:34.411Z,50.30
2022-12-09T20:56:02.461Z,50.57
2022-12-09T20:58:31.753Z,50.46
2022-12-09T21:01:05.849Z,50.59
2022-12-09T21:03:34.068Z,50.79
2022-12-09T21:06:02.158Z,50.99
2022-12-09T21:08:31.935Z,51.25
2022-12-09T21:11:06.615Z,51.26
2022-12-09T21:13:38.461Z,51.41
2022-12-09T21:16:07.238Z,51.37
2022-12-09T21:18:35.489Z,51.23
2022-12-09T21:21:03.603Z,51.13
2022-12-09T21:23:34.068Z,51.00
2022-12-09T21:26:04.939Z,50.96
2022-12-09T21:28:32.858Z,50.91
2022-12-09T21:31:09.342Z,51.03
2022-12-09T21:33:37.618Z,51.01
2022-12-09T21:36:07.350Z,51.47
2022-12-09T21:38:35.257Z,51.60
2022-12-09T21:41:04.814Z,51.50
2022-12-09T21:43:33.057Z,51.39
2022-12-09T21:46:04.185Z,51.54
2022-12-09T21:48:32.412Z,51.50
2022-12-09T21:51:01.375Z,51.28
2022-12-09T21:53:29.334Z,51.27
2022-12-09T21:56:01.773Z,51.35
2022-12-09T21:58:31.154Z,51.46
2022-12-09T22:00:59.233Z,51.25
2022-12-09T22:03:28.602Z,51.30
2022-12-09T22:05:58.464Z,51.22
2022-12-09T22:08:26.615Z,51.14
2022-12-09T22:10:54.677Z,51.23
2022-12-09T22:13:22.777Z,50.95
2022-12-09T22:15:50.691Z,50.76
2022-12-09T22:18:18.706Z,50.90
2022-12-09T22:21:23.652Z,50.93
2022-12-09T22:23:35.981Z,50.94
2022-12-09T22:26:05.707Z,50.97
2022-12-09T22:28:33.616Z,51.04
2022-12-09T22:31:02.108Z,51.14
2022-12-09T22:33:30.050Z,50.98
2022-12-09T22:36:02.999Z,51.05
2022-12-09T22:38:30.915Z,51.02
2022-12-09T22:40:58.794Z,51.23
2022-12-09T22:43:26.741Z,51.47
2022-12-09T22:45:54.775Z,51.47
2022-12-09T22:48:22.760Z,51.32
2022-12-09T22:50:50.662Z,51.25
2022-12-09T22:53:20.125Z,51.27
2022-12-09T22:55:48.293Z,51.22
2022-12-09T22:58:16.223Z,51.40
2022-12-09T23:00:44.206Z,51.21
2022-12-09T23:03:12.416Z,51.13
2022-12-09T23:05:40.438Z,51.12
2022-12-09T23:08:08.435Z,51.16
2022-12-09T23:10:37.762Z,51.04
2022-12-09T23:13:05.717Z,50.94
2022-12-09T23:15:33.942Z,51.25
2022-12-09T23:18:02.015Z,51.20
2022-12-09T23:20:30.108Z,51.22
2022-12-09T23:23:00.028Z,51.21
2022-12-09T23:25:27.944Z,51.02
2022-12-09T23:27:57.270Z,50.86
2022-12-09T23:30:25.186Z,51.16
2022-12-09T23:32:53.109Z,51.00
2022-12-09T23:35:21.022Z,50.82
2022-12-09T23:37:49.125Z,50.98
2022-12-09T23:40:17.373Z,51.00
2022-12-09T23:42:45.435Z,51.33
2022-12-09T23:45:14.824Z,51.47
2022-12-09T23:47:42.919Z,51.92
2022-12-09T23:50:11.489Z,52.27
2022-12-09T23:52:39.408Z,52.65
2022-12-09T23:55:08.569Z,53.06
2022-12-09T23:57:36.490Z,53.07
